Time;durP1;ratioP1;P1;durP2;ratioP2;P2;SDS_P1;SDS_P2;PMS_P1;PMS_P2;Temp;Humidity;BMP_temperature;BMP_pressure;BME280_temperature;BME280_humidity;BME280_pressure;Samples;Min_cycle;Max_cycle;Signal;HPM_P1;HPM_P2
2022/08/11 00:01:18;;;;;;;3.40;1.80;;;;;;;17.82;55.93;101686.59;107103;1282;61951;-82
2022/08/11 00:03:47;;;;;;;4.50;1.70;;;;;;;17.78;56.15;101687.50;107251;1281;76195;-82
2022/08/11 00:06:24;;;;;;;4.30;1.50;;;;;;;17.75;56.15;101683.84;107047;1282;71618;-81
2022/08/11 00:08:53;;;;;;;6.30;1.40;;;;;;;17.71;56.16;101684.48;106699;1282;74301;-82
2022/08/11 00:11:21;;;;;;;2.40;1.30;;;;;;;17.67;56.21;101678.50;106935;1282;62042;-82
2022/08/11 00:13:53;;;;;;;3.00;1.50;;;;;;;17.64;56.52;101680.57;107265;1282;60917;-82
2022/08/11 00:16:23;;;;;;;4.70;2.00;;;;;;;17.59;56.86;101683.71;106911;1282;76950;-81
2022/08/11 00:18:55;;;;;;;4.00;1.50;;;;;;;17.53;56.94;101683.21;107255;1282;71072;-82
2022/08/11 00:21:25;;;;;;;3.40;1.60;;;;;;;17.48;57.09;101682.70;106871;1282;73008;-80
2022/08/11 00:24:12;;;;;;;3.40;1.60;;;;;;;17.41;57.54;101680.05;107006;1282;64080;-82
2022/08/11 00:26:45;;;;;;;4.60;1.50;;;;;;;17.36;57.69;101677.46;107171;1279;63241;-81
2022/08/11 00:29:13;;;;;;;4.90;1.60;;;;;;;17.32;57.75;101675.33;106872;1281;75862;-82
2022/08/11 00:31:46;;;;;;;3.60;1.60;;;;;;;17.29;57.77;101675.02;106914;1284;72129;-81
2022/08/11 00:34:17;;;;;;;2.90;1.50;;;;;;;17.25;58.07;101677.98;107421;1282;74249;-82
2022/08/11 00:36:59;;;;;;;3.30;1.50;;;;;;;17.21;58.29;101679.90;106814;1282;62998;-81
2022/08/11 00:39:27;;;;;;;4.50;1.50;;;;;;;17.17;58.50;101683.49;107234;1279;62022;-81
2022/08/11 00:42:23;;;;;;;2.60;1.50;;;;;;;17.12;58.63;101682.65;107078;1282;74725;-82
2022/08/11 00:45:12;;;;;;;3.50;1.40;;;;;;;17.07;58.91;101683.88;106997;1282;71506;-81
2022/08/11 00:48:18;;;;;;;4.20;1.40;;;;;;;17.03;58.95;101680.06;107657;1282;74006;-82
2022/08/11 00:51:18;;;;;;;4.80;1.50;;;;;;;16.99;59.25;101683.44;107084;1282;63912;-81
2022/08/11 00:54:18;;;;;;;5.00;1.70;;;;;;;16.97;59.60;101684.12;107177;1282;62548;-82
2022/08/11 00:57:04;;;;;;;3.50;1.60;;;;;;;16.94;59.96;101682.60;107015;1282;77206;-82
2022/08/11 01:00:15;;;;;;;5.20;1.70;;;;;;;16.91;60.29;101679.08;106822;1282;73989;-81
2022/08/11 01:03:07;;;;;;;4.30;1.90;;;;;;;16.88;60.68;101679.27;106648;1284;73164;-82
2022/08/11 01:05:55;;;;;;;6.00;2.10;;;;;;;16.86;60.81;101682.75;107239;1281;62253;-81
2022/08/11 01:08:45;;;;;;;5.80;2.00;;;;;;;16.82;61.23;101686.46;106973;1282;61865;-81
2022/08/11 01:11:43;;;;;;;4.80;1.70;;;;;;;16.78;61.53;101686.98;107040;1280;74975;-81
2022/08/11 01:15:11;;;;;;;4.50;1.90;;;;;;;16.71;61.71;101686.29;106853;1280;70953;-82
2022/08/11 01:17:38;;;;;;;5.60;1.90;;;;;;;16.68;61.91;101686.14;107205;1282;73074;-81
2022/08/11 01:20:31;;;;;;;5.20;1.70;;;;;;;16.64;62.10;101686.09;107068;1282;62242;-81
2022/08/11 01:23:30;;;;;;;4.00;1.80;;;;;;;16.60;62.15;101690.71;107283;1282;62029;-81
2022/08/11 01:26:15;;;;;;;4.40;2.00;;;;;;;16.57;62.39;101690.48;107318;1282;75593;-82
2022/08/11 01:29:22;;;;;;;4.20;1.80;;;;;;;16.51;62.49;101691.45;107070;1282;71395;-81
2022/08/11 01:32:10;;;;;;;4.40;1.80;;;;;;;16.48;62.60;101688.20;106798;1284;73031;-81
2022/08/11 01:34:51;;;;;;;2.60;1.50;;;;;;;16.44;62.77;101684.73;106998;1284;61715;-81
2022/08/11 01:37:43;;;;;;;3.00;1.70;;;;;;;16.42;62.88;101689.48;106979;1282;60439;-81
2022/08/11 01:40:46;;;;;;;3.80;1.60;;;;;;;16.37;63.02;101684.73;107078;1281;75803;-81
2022/08/11 01:46:49;;;;;;;4.20;1.60;;;;;;;16.26;63.20;101685.86;107160;1282;71384;-81
2022/08/11 01:49:34;;;;;;;4.10;1.70;;;;;;;16.22;63.39;101690.66;107213;1282;63627;-81
2022/08/11 01:52:41;;;;;;;4.70;1.90;;;;;;;16.16;63.42;101688.70;107347;1282;62502;-81
2022/08/11 01:55:30;;;;;;;3.90;1.80;;;;;;;16.11;63.58;101692.06;106953;1284;75876;-81
2022/08/11 01:58:15;;;;;;;4.00;1.90;;;;;;;16.06;63.71;101690.46;107180;1283;70805;-81
2022/08/11 02:00:55;;;;;;;4.00;1.90;;;;;;;16.01;64.07;101686.45;107369;1282;73177;-81
2022/08/11 02:03:31;;;;;;;4.40;2.00;;;;;;;15.97;64.13;101689.38;107165;1282;61112;-82
2022/08/11 02:09:24;;;;;;;4.50;2.00;;;;;;;15.90;64.44;101689.43;107436;1282;76237;-82
2022/08/11 02:11:58;;;;;;;3.90;2.00;;;;;;;15.87;64.72;101688.98;107209;1282;71782;-81
2022/08/11 02:14:45;;;;;;;4.50;2.40;;;;;;;15.82;64.95;101691.92;107359;1282;71546;-81
2022/08/11 02:17:46;;;;;;;4.30;1.90;;;;;;;15.76;65.08;101687.11;107463;1282;61212;-81
2022/08/11 02:23:38;;;;;;;4.40;2.10;;;;;;;15.68;65.48;101683.85;107331;1282;76915;-82
2022/08/11 02:26:40;;;;;;;3.40;1.90;;;;;;;15.65;65.51;101681.45;106728;1282;74701;-82
2022/08/11 02:29:34;;;;;;;3.50;2.10;;;;;;;15.62;65.77;101679.43;107058;1282;73978;-81
2022/08/11 02:35:15;;;;;;;4.70;2.30;;;;;;;15.57;66.16;101682.05;107228;1282;60262;-82
2022/08/11 02:38:23;;;;;;;7.10;2.60;;;;;;;15.54;66.35;101680.23;107400;1282;76092;-81
2022/08/11 02:41:01;;;;;;;4.40;2.10;;;;;;;15.52;66.55;101684.60;107155;1282;70472;-81
2022/08/11 02:43:44;;;;;;;5.00;2.10;;;;;;;15.48;66.64;101683.44;106836;1284;73759;-81
2022/08/11 02:46:31;;;;;;;4.60;2.60;;;;;;;15.45;66.75;101684.91;106959;1282;62292;-81
2022/08/11 02:52:17;;;;;;;3.60;2.10;;;;;;;15.39;67.07;101681.13;107174;1282;76795;-81
2022/08/11 02:54:51;;;;;;;4.50;2.50;;;;;;;15.37;67.09;101680.61;106858;1282;71518;-82
2022/08/11 02:57:32;;;;;;;4.80;2.30;;;;;;;15.36;67.07;101681.61;106862;1282;71794;-81
2022/08/11 03:00:06;;;;;;;5.30;1.80;;;;;;;15.36;67.29;101686.45;107117;1282;63276;-80
2022/08/11 03:02:41;;;;;;;3.70;2.20;;;;;;;15.35;67.15;101681.27;107101;1282;61446;-81
2022/08/11 03:05:16;;;;;;;5.10;1.90;;;;;;;15.34;67.10;101684.57;106888;1282;75085;-81
2022/08/11 03:08:13;;;;;;;4.00;1.90;;;;;;;15.33;67.24;101677.61;107316;1282;72352;-81
2022/08/11 03:17:23;;;;;;;5.70;2.10;;;;;;;15.29;67.22;101680.51;107289;1282;60080;-80
2022/08/11 03:20:01;;;;;;;4.20;1.90;;;;;;;15.29;67.13;101684.77;106751;1284;76738;-81
2022/08/11 03:22:37;;;;;;;2.80;2.00;;;;;;;15.29;67.33;101684.10;107041;1281;72916;-81
2022/08/11 03:25:29;;;;;;;2.90;2.00;;;;;;;15.28;67.27;101685.08;106773;1284;72970;-81
2022/08/11 03:28:46;;;;;;;3.70;2.10;;;;;;;15.28;67.20;101681.77;106636;1284;62887;-81
2022/08/11 03:31:33;;;;;;;5.30;1.90;;;;;;;15.26;67.12;101684.46;106586;1284;62020;-82
2022/08/11 03:34:10;;;;;;;4.40;2.10;;;;;;;15.25;67.33;101684.52;107013;1284;75769;-81
2022/08/11 03:37:03;;;;;;;3.90;2.30;;;;;;;15.25;67.16;101686.50;106826;1284;72442;-81
2022/08/11 03:43:17;;;;;;;3.50;2.00;;;;;;;15.26;67.22;101689.84;106911;1284;63621;-81
2022/08/11 03:46:19;;;;;;;5.30;2.10;;;;;;;15.25;67.19;101686.00;107174;1284;62434;-81
2022/08/11 03:49:16;;;;;;;3.60;2.20;;;;;;;15.26;67.38;101685.56;106972;1284;77139;-81
2022/08/11 03:52:07;;;;;;;4.20;2.20;;;;;;;15.26;67.22;101686.60;106958;1284;72046;-81
2022/08/11 03:55:06;;;;;;;4.00;2.60;;;;;;;15.25;67.42;101681.33;107206;1284;72999;-81
2022/08/11 03:57:56;;;;;;;3.70;2.40;;;;;;;15.23;67.22;101681.36;106998;1282;62029;-81
2022/08/11 04:00:44;;;;;;;3.90;2.30;;;;;;;15.22;67.46;101689.16;106756;1283;59986;-81
2022/08/11 04:03:39;;;;;;;4.30;2.10;;;;;;;15.21;67.71;101689.55;106960;1283;75849;-81
2022/08/11 04:06:53;;;;;;;4.00;2.40;;;;;;;15.20;67.79;101687.69;107053;1283;72440;-80
2022/08/11 04:09:19;;;;;;;4.30;2.50;;;;;;;15.18;67.85;101684.33;106953;1284;74192;-81
2022/08/11 04:12:17;;;;;;;4.00;2.60;;;;;;;15.17;67.96;101686.94;106850;1283;63519;-80
2022/08/11 04:18:18;;;;;;;4.40;2.20;;;;;;;15.13;68.12;101685.77;107271;1282;76541;-80
2022/08/11 04:20:57;;;;;;;4.90;2.50;;;;;;;15.12;68.13;101684.42;106999;1282;71085;-80
2022/08/11 04:23:42;;;;;;;3.30;2.50;;;;;;;15.11;68.39;101682.32;107038;1282;72994;-80
2022/08/11 04:26:32;;;;;;;5.10;2.60;;;;;;;15.08;68.66;101680.11;107160;1282;62044;-80
2022/08/11 04:29:30;;;;;;;4.30;2.50;;;;;;;15.06;68.75;101683.40;107317;1282;60529;-80
2022/08/11 04:32:26;;;;;;;4.10;2.40;;;;;;;15.04;69.17;101678.45;107198;1282;77539;-80
2022/08/11 04:35:18;;;;;;;6.00;2.70;;;;;;;15.04;68.85;101680.77;107221;1283;71326;-81
2022/08/11 04:37:53;;;;;;;3.80;2.70;;;;;;;15.05;69.24;101680.33;106805;1282;75123;-81
2022/08/11 04:40:48;;;;;;;3.80;2.30;;;;;;;15.08;69.28;101682.31;106977;1282;62514;-80
2022/08/11 04:43:46;;;;;;;5.50;2.50;;;;;;;15.11;69.12;101679.98;107190;1282;60688;-80
2022/08/11 04:46:58;;;;;;;6.40;2.50;;;;;;;15.18;69.16;101682.92;107462;1282;77175;-80
2022/08/11 05:01:42;;;;;;;5.30;2.70;;;;;;;15.61;68.32;101695.27;107255;1282;78109;-81
2022/08/11 05:07:31;;;;;;;6.00;2.50;;;;;;;15.82;67.82;101692.66;107245;1282;72225;-80
2022/08/11 05:10:35;;;;;;;6.60;2.40;;;;;;;15.90;67.56;101688.91;107078;1283;62245;-81
2022/08/11 05:37:18;;;;;;;6.60;2.50;;;;;;;17.01;65.81;101682.59;107006;1282;73128;-81
2022/08/11 05:57:25;;;;;;;4.60;2.50;;;;;;;17.73;64.41;101692.62;107316;1281;60677;-81
2022/08/11 06:00:13;;;;;;;4.80;2.60;;;;;;;17.85;64.37;101696.06;107292;1282;77202;-81
2022/08/11 06:02:55;;;;;;;4.70;2.40;;;;;;;17.99;64.24;101694.31;107158;1282;71551;-81
2022/08/11 06:05:22;;;;;;;3.90;2.40;;;;;;;18.13;63.76;101694.66;107180;1282;73951;-81
2022/08/11 06:07:54;;;;;;;3.50;2.40;;;;;;;18.27;63.71;101694.36;107050;1281;63012;-81
2022/08/11 06:10:32;;;;;;;5.10;2.50;;;;;;;18.44;63.29;101694.27;106878;1282;61282;-81
2022/08/11 06:13:00;;;;;;;4.40;2.40;;;;;;;18.56;62.72;101694.67;106882;1283;74625;-81
2022/08/11 06:15:29;;;;;;;5.20;2.50;;;;;;;18.72;62.47;101695.15;106911;1283;71314;-81
2022/08/11 06:17:58;;;;;;;3.30;2.40;;;;;;;18.84;62.07;101690.33;107064;1282;73065;-81
2022/08/11 06:20:31;;;;;;;4.60;2.20;;;;;;;18.94;61.81;101694.18;106964;1282;62336;-81
2022/08/11 06:23:02;;;;;;;4.80;2.20;;;;;;;19.05;61.60;101691.13;107410;1282;61541;-81
2022/08/11 06:25:31;;;;;;;6.40;2.50;;;;;;;19.16;61.23;101686.02;107272;1282;75233;-81
2022/08/11 06:27:59;;;;;;;3.80;2.20;;;;;;;19.27;61.17;101687.38;107136;1282;72983;-81
2022/08/11 06:30:45;;;;;;;4.50;2.20;;;;;;;19.41;60.80;101689.06;106961;1282;72759;-81
2022/08/11 06:33:30;;;;;;;4.10;2.10;;;;;;;19.56;60.58;101684.33;106987;1282;61960;-81
2022/08/11 06:36:06;;;;;;;4.90;2.30;;;;;;;19.69;60.04;101684.71;106993;1282;61155;-82
2022/08/11 06:38:49;;;;;;;5.70;2.30;;;;;;;19.86;59.79;101685.96;107187;1281;76867;-82
2022/08/11 06:41:30;;;;;;;4.30;2.60;;;;;;;20.02;59.19;101686.45;107196;1282;71243;-81
2022/08/11 06:44:13;;;;;;;4.40;1.90;;;;;;;20.20;58.76;101688.14;106883;1282;74460;-81
2022/08/11 06:46:42;;;;;;;5.20;2.30;;;;;;;20.36;58.43;101685.70;107103;1280;61734;-81
2022/08/11 06:52:03;;;;;;;4.70;2.00;;;;;;;20.64;57.40;101682.58;106797;1282;77180;-81
2022/08/11 06:54:40;;;;;;;4.40;2.30;;;;;;;20.74;57.21;101684.08;107069;1282;72717;-82
2022/08/11 07:00:26;;;;;;;3.80;2.30;;;;;;;21.03;56.81;101686.63;106993;1282;60709;-82
2022/08/11 07:03:09;;;;;;;3.90;1.90;;;;;;;21.21;56.34;101688.23;107149;1282;60748;-81
2022/08/11 07:05:36;;;;;;;7.30;2.70;;;;;;;21.32;55.53;101683.45;107428;1281;75762;-81
2022/08/11 07:17:13;;;;;;;6.70;2.00;;;;;;;21.86;54.56;101693.90;107196;1281;60551;-82
2022/08/11 07:31:00;;;;;;;4.20;1.90;;;;;;;22.71;52.57;101688.95;107004;1282;60791;-82
2022/08/11 07:33:38;;;;;;;5.50;1.80;;;;;;;22.86;52.05;101685.95;107231;1281;76849;-82
2022/08/11 07:36:28;;;;;;;2.90;1.70;;;;;;;23.06;51.42;101690.42;107099;1280;70930;-82
2022/08/11 07:38:56;;;;;;;4.60;2.00;;;;;;;23.23;51.17;101692.87;107211;1282;72942;-81
2022/08/11 07:41:24;;;;;;;3.00;1.70;;;;;;;23.37;50.36;101686.80;107115;1282;60372;-81
2022/08/11 07:43:55;;;;;;;5.20;2.00;;;;;;;23.43;49.46;101682.73;107025;1282;61967;-82
2022/08/11 07:54:42;;;;;;;4.60;2.20;;;;;;;24.06;48.39;101681.06;107150;1281;62344;-82
2022/08/11 08:20:13;;;;;;;4.60;2.10;;;;;;;25.26;45.48;101685.36;107253;1281;72960;-83
2022/08/11 08:22:41;;;;;;;7.70;2.10;;;;;;;25.41;45.01;101687.08;107355;1280;62391;-82
2022/08/11 08:25:15;;;;;;;4.60;1.80;;;;;;;25.57;45.17;101685.73;107312;1282;61148;-83
2022/08/11 08:27:44;;;;;;;6.40;1.90;;;;;;;25.67;44.04;101687.75;107252;1282;75892;-83
2022/08/11 08:32:59;;;;;;;5.70;1.80;;;;;;;25.85;44.41;101679.73;107315;1281;72988;-83
2022/08/11 08:35:29;;;;;;;5.20;2.00;;;;;;;26.03;42.98;101678.23;107227;1282;62077;-84
2022/08/11 08:37:59;;;;;;;4.00;1.80;;;;;;;26.16;42.84;101675.42;106808;1281;61826;-83
2022/08/11 08:40:27;;;;;;;4.90;2.00;;;;;;;26.33;42.45;101677.29;107168;1281;76573;-84
2022/08/11 08:43:08;;;;;;;3.20;1.70;;;;;;;26.46;41.64;101674.96;107226;1282;71447;-84
2022/08/11 08:45:37;;;;;;;4.50;1.80;;;;;;;26.56;40.57;101679.42;106824;1282;73100;-84
2022/08/11 08:48:09;;;;;;;4.40;1.80;;;;;;;26.68;40.67;101681.17;107015;1282;62151;-85
2022/08/11 08:53:33;;;;;;;3.50;1.80;;;;;;;26.81;39.76;101672.95;107371;1282;75737;-84
2022/08/11 08:56:02;;;;;;;4.40;1.90;;;;;;;26.97;40.14;101665.50;107031;1281;71398;-83
2022/08/11 08:58:30;;;;;;;5.60;1.90;;;;;;;27.17;39.14;101665.86;107151;1282;74355;-84
2022/08/11 09:00:59;;;;;;;4.50;1.60;;;;;;;27.35;39.22;101665.13;107029;1282;61753;-84
2022/08/11 09:03:26;;;;;;;5.80;2.00;;;;;;;27.55;39.01;101665.70;107250;1282;61968;-84
2022/08/11 09:06:16;;;;;;;4.80;1.80;;;;;;;27.73;37.57;101659.63;107109;1281;78359;-83
2022/08/11 09:08:45;;;;;;;7.10;2.00;;;;;;;27.80;37.12;101657.31;107113;1282;73602;-83
2022/08/11 09:14:07;;;;;;;3.10;1.50;;;;;;;28.12;37.72;101649.20;106981;1282;62247;-84
2022/08/11 09:16:42;;;;;;;5.70;1.70;;;;;;;28.30;37.36;101651.44;106904;1282;61947;-83
2022/08/11 09:19:09;;;;;;;6.50;1.60;;;;;;;28.43;36.78;101646.44;107027;1281;76806;-82
2022/08/11 09:21:40;;;;;;;3.70;1.50;;;;;;;28.55;35.78;101644.46;107155;1282;70892;-82
2022/08/11 09:27:07;;;;;;;4.60;1.60;;;;;;;28.64;33.95;101644.07;106955;1282;60646;-83
2022/08/11 09:29:36;;;;;;;4.60;1.40;;;;;;;28.68;33.87;101643.14;107034;1282;62208;-83
2022/08/11 09:32:05;;;;;;;3.90;1.50;;;;;;;28.82;34.81;101637.45;107184;1281;75400;-83
2022/08/11 09:34:35;;;;;;;3.70;1.60;;;;;;;28.98;33.61;101633.61;106823;1282;71422;-83
2022/08/11 09:40:32;;;;;;;5.10;1.50;;;;;;;29.20;32.05;101633.84;107269;1282;62067;-83
2022/08/11 09:45:52;;;;;;;3.20;1.40;;;;;;;29.45;32.56;101629.34;106828;1282;75787;-83
2022/08/11 09:48:29;;;;;;;4.30;1.50;;;;;;;29.48;31.52;101629.69;106949;1284;72683;-84
2022/08/11 09:50:58;;;;;;;5.40;1.40;;;;;;;29.60;31.28;101620.48;107067;1280;73973;-83
2022/08/11 09:53:29;;;;;;;4.00;1.40;;;;;;;29.72;31.58;101623.21;107039;1282;60398;-82
2022/08/11 09:59:06;;;;;;;4.50;1.60;;;;;;;29.94;30.59;101615.45;106998;1281;76847;-84
2022/08/11 10:01:41;;;;;;;2.40;1.40;;;;;;;30.04;30.94;101613.20;107033;1283;72427;-84
2022/08/11 10:04:19;;;;;;;3.80;1.20;;;;;;;30.06;30.62;101613.17;107153;1282;74167;-84
2022/08/11 10:07:04;;;;;;;3.50;1.30;;;;;;;30.11;30.91;101610.89;106954;1282;62094;-83
2022/08/11 10:09:40;;;;;;;3.50;1.70;;;;;;;30.23;30.34;101609.44;106972;1282;62098;-83
2022/08/11 10:12:23;;;;;;;3.10;1.50;;;;;;;30.37;30.07;101603.84;107122;1284;76915;-84
2022/08/11 10:20:35;;;;;;;4.00;1.40;;;;;;;30.42;27.01;101596.67;106917;1284;62071;-83
2022/08/11 10:28:40;;;;;;;2.10;1.00;;;;;;;30.63;27.40;101586.41;107123;1281;71315;-84
2022/08/11 10:34:26;;;;;;;5.10;1.20;;;;;;;30.81;27.39;101582.70;107051;1282;60643;-84
2022/08/11 10:36:57;;;;;;;4.10;1.40;;;;;;;30.95;27.85;101574.77;106919;1282;60426;-86
2022/08/11 10:39:25;;;;;;;2.90;1.10;;;;;;;31.13;26.75;101572.24;106929;1282;75305;-84
2022/08/11 10:45:02;;;;;;;3.40;1.10;;;;;;;31.33;27.12;101567.06;106944;1282;75513;-84
2022/08/11 10:47:37;;;;;;;4.50;1.40;;;;;;;31.42;26.25;101562.85;107073;1282;61383;-83
2022/08/11 10:58:48;;;;;;;3.40;1.20;;;;;;;31.44;25.18;101558.61;106872;1282;72406;-84
2022/08/11 11:01:22;;;;;;;4.90;1.20;;;;;;;31.44;24.76;101558.17;106339;1284;62449;-84
2022/08/11 11:03:51;;;;;;;2.30;1.30;;;;;;;31.52;25.88;101556.86;105622;1282;1631039;-83
2022/08/11 11:06:24;;;;;;;6.40;1.40;;;;;;;31.63;25.83;101556.64;106729;1281;77350;-84
2022/08/11 11:09:07;;;;;;;1.90;0.90;;;;;;;31.72;25.10;101551.58;107286;1282;70036;-84
2022/08/11 11:17:56;;;;;;;2.70;1.20;;;;;;;31.84;24.95;101548.88;107230;1284;63384;-84
2022/08/11 11:20:26;;;;;;;4.20;1.40;;;;;;;31.86;25.26;101548.13;106880;1283;75541;-84
2022/08/11 11:23:32;;;;;;;2.70;1.30;;;;;;;32.01;25.93;101549.54;106892;1284;71028;-83
2022/08/11 11:26:23;;;;;;;2.80;1.20;;;;;;;32.18;25.53;101544.58;107025;1282;74092;-83
2022/08/11 11:29:10;;;;;;;4.10;1.20;;;;;;;32.22;24.71;101539.98;107038;1283;61807;-83
2022/08/11 11:31:53;;;;;;;2.50;1.20;;;;;;;32.21;24.00;101534.52;106754;1283;60394;-85
2022/08/11 11:34:46;;;;;;;4.80;1.30;;;;;;;32.24;24.43;101535.52;107280;1281;77002;-83
2022/08/11 11:37:24;;;;;;;2.60;1.10;;;;;;;32.29;24.91;101541.08;106982;1283;74628;-83
2022/08/11 11:39:54;;;;;;;3.70;1.30;;;;;;;32.31;25.15;101539.94;106742;1284;73124;-82
2022/08/11 11:42:21;;;;;;;2.80;1.10;;;;;;;32.38;25.17;101542.89;106774;1284;61648;-83
2022/08/11 11:44:49;;;;;;;3.30;1.10;;;;;;;32.43;24.55;101540.39;107203;1283;61777;-84
2022/08/11 11:47:21;;;;;;;3.80;1.20;;;;;;;32.45;24.34;101537.39;107043;1284;75642;-83
2022/08/11 11:49:49;;;;;;;2.00;1.00;;;;;;;32.44;23.74;101539.27;106876;1283;71098;-82
2022/08/11 11:52:20;;;;;;;3.40;1.20;;;;;;;32.43;24.41;101529.94;106944;1283;74024;-83
2022/08/11 11:54:52;;;;;;;4.60;1.30;;;;;;;32.45;24.13;101529.25;106929;1284;62100;-83
2022/08/11 12:03:01;;;;;;;2.80;1.10;;;;;;;32.90;23.33;101526.89;106757;1284;72298;-83
2022/08/11 12:05:32;;;;;;;3.10;1.30;;;;;;;33.13;24.01;101523.95;107039;1283;73099;-83
2022/08/11 12:08:14;;;;;;;2.90;1.20;;;;;;;33.50;23.57;101521.59;106982;1283;60989;-84
2022/08/11 12:13:39;;;;;;;2.30;1.00;;;;;;;33.98;22.36;101519.33;106869;1284;60574;-83
2022/08/11 12:14:06;;;;;;;2.40;1.10;;;;;;;34.44;22.29;101522.64;107183;1282;74511;-83
2022/08/11 12:16:39;;;;;;;2.50;1.20;;;;;;;34.81;20.65;101516.98;107215;1283;71511;-84
2022/08/11 12:19:11;;;;;;;2.50;1.40;;;;;;;35.02;20.33;101509.71;106974;1284;73189;-84
2022/08/11 12:27:20;;;;;;;3.40;1.00;;;;;;;36.72;19.71;101494.21;107064;1282;77199;-84
2022/08/11 12:30:02;;;;;;;3.90;1.20;;;;;;;37.36;19.41;101494.27;106742;1282;71630;-84
2022/08/11 12:32:31;;;;;;;3.00;1.10;;;;;;;38.14;18.65;101497.30;106479;1284;74029;-84
2022/08/11 12:34:58;;;;;;;2.30;1.00;;;;;;;38.94;17.98;101494.50;106984;1284;63232;-83
2022/08/11 12:37:31;;;;;;;4.50;1.30;;;;;;;39.65;17.13;101485.98;106804;1282;61941;-84
2022/08/11 12:46:26;;;;;;;4.90;1.00;;;;;;;41.45;15.66;101467.15;106750;1282;72803;-84
2022/08/11 12:52:00;;;;;;;3.40;1.00;;;;;;;41.95;14.29;101456.71;106952;1281;60923;-86
2022/08/11 12:54:41;;;;;;;2.70;0.90;;;;;;;42.33;14.11;101457.91;106923;1281;76809;-86
2022/08/11 13:06:03;;;;;;;2.10;0.90;;;;;;;44.00;13.02;101446.65;106500;1284;62144;-85
2022/08/11 13:08:34;;;;;;;3.10;1.10;;;;;;;44.22;12.67;101442.92;106882;1283;76337;-85
2022/08/11 13:14:12;;;;;;;1.00;0.70;;;;;;;44.76;12.24;101438.45;106713;1284;75150;-85
2022/08/11 13:19:29;;;;;;;1.90;0.80;;;;;;;45.40;11.56;101437.11;107027;1284;62075;-86
2022/08/11 13:21:57;;;;;;;3.20;1.10;;;;;;;45.57;11.28;101435.14;106997;1284;77251;-86
2022/08/11 13:24:25;;;;;;;4.50;0.80;;;;;;;45.92;11.69;101434.85;106706;1282;71353;-86
2022/08/11 13:26:52;;;;;;;1.80;1.00;;;;;;;46.23;10.92;101431.33;106907;1284;73293;-86
2022/08/11 13:29:25;;;;;;;2.20;0.90;;;;;;;46.24;10.43;101422.73;107042;1282;61443;-86
2022/08/11 13:31:58;;;;;;;2.60;1.00;;;;;;;46.35;11.16;101426.81;106914;1284;61838;-86
2022/08/11 13:34:26;;;;;;;4.20;1.00;;;;;;;46.70;11.16;101420.86;107051;1283;75583;-86
2022/08/11 13:36:57;;;;;;;3.60;0.90;;;;;;;47.14;10.84;101419.56;107081;1284;72854;-86
2022/08/11 13:39:26;;;;;;;2.40;0.90;;;;;;;47.43;10.52;101413.99;107046;1284;72871;-87
2022/08/11 13:41:56;;;;;;;2.10;1.00;;;;;;;47.46;10.42;101415.90;107114;1282;60399;-86
2022/08/11 13:44:26;;;;;;;1.90;0.70;;;;;;;47.47;9.44;101413.80;106767;1282;60722;-85
2022/08/11 13:46:56;;;;;;;2.60;0.80;;;;;;;47.58;9.85;101412.61;106974;1281;77319;-86
2022/08/11 13:49:24;;;;;;;3.50;1.00;;;;;;;47.96;10.48;101409.80;107295;1282;72490;-87
2022/08/11 13:51:51;;;;;;;2.80;1.00;;;;;;;48.51;9.49;101409.73;106964;1282;74135;-86
2022/08/11 13:54:24;;;;;;;2.70;1.00;;;;;;;48.69;9.36;101403.80;107098;1282;62541;-86
2022/08/11 13:56:55;;;;;;;3.80;1.00;;;;;;;48.85;9.51;101403.67;107019;1282;63749;-86
2022/08/11 13:59:23;;;;;;;3.00;1.00;;;;;;;49.09;9.36;101399.98;107217;1282;75743;-87
2022/08/11 14:02:03;;;;;;;2.50;1.00;;;;;;;49.11;9.35;101398.66;107227;1282;72772;-87
2022/08/11 14:04:56;;;;;;;3.20;1.00;;;;;;;49.08;9.28;101396.77;106911;1282;75897;-85
2022/08/11 14:07:26;;;;;;;4.10;0.90;;;;;;;49.27;9.27;101399.88;107014;1282;60363;-87
2022/08/11 14:09:59;;;;;;;2.60;0.90;;;;;;;49.16;9.00;101391.42;106796;1282;60847;-86
2022/08/11 14:15:21;;;;;;;2.00;0.90;;;;;;;49.45;9.30;101390.98;107260;1282;72854;-86
2022/08/11 14:17:53;;;;;;;2.60;0.80;;;;;;;49.70;8.65;101386.55;107169;1282;72988;-86
2022/08/11 14:20:21;;;;;;;2.70;0.90;;;;;;;49.78;8.71;101387.63;106811;1282;60415;-85
2022/08/11 14:23:05;;;;;;;4.00;0.90;;;;;;;49.88;8.71;101384.80;107257;1281;61125;-87
2022/08/11 14:25:32;;;;;;;2.50;0.80;;;;;;;50.10;8.73;101388.50;106857;1282;77151;-87
2022/08/11 14:28:19;;;;;;;4.00;1.00;;;;;;;50.29;8.64;101384.10;107046;1282;71367;-87
2022/08/11 14:31:04;;;;;;;3.10;1.10;;;;;;;50.55;8.88;101381.56;106911;1282;74264;-86
2022/08/11 14:33:32;;;;;;;2.20;0.90;;;;;;;50.50;7.70;101374.89;107009;1281;60071;-86
2022/08/11 14:36:22;;;;;;;2.60;0.70;;;;;;;49.84;8.01;101368.56;107094;1282;62380;-85
2022/08/11 14:38:52;;;;;;;2.60;0.90;;;;;;;49.77;8.19;101369.11;106676;1284;77084;-87
2022/08/11 14:47:15;;;;;;;2.20;1.00;;;;;;;50.45;8.07;101361.69;107263;1282;60453;-86
2022/08/11 14:49:54;;;;;;;4.00;1.10;;;;;;;50.54;8.18;101361.09;107104;1282;61908;-83
2022/08/11 14:52:37;;;;;;;2.30;0.90;;;;;;;50.51;8.09;101362.05;106775;1282;76226;-86
2022/08/11 14:57:54;;;;;;;2.10;0.80;;;;;;;50.28;8.35;101355.09;106994;1284;74061;-85
2022/08/11 15:00:24;;;;;;;3.40;0.90;;;;;;;50.44;8.15;101349.50;106801;1282;62198;-85
2022/08/11 15:03:10;;;;;;;2.20;0.90;;;;;;;50.56;7.95;101349.27;106785;1282;60309;-86
2022/08/11 15:05:40;;;;;;;3.30;0.90;;;;;;;50.03;8.38;101347.44;106842;1284;75948;-86
2022/08/11 15:08:19;;;;;;;3.00;0.90;;;;;;;49.65;8.61;101346.19;106763;1282;72198;-85
2022/08/11 15:10:48;;;;;;;1.90;0.90;;;;;;;49.67;8.91;101350.67;106961;1282;73458;-86
2022/08/11 15:13:18;;;;;;;3.10;0.80;;;;;;;49.90;8.84;101351.70;107127;1282;62078;-86
2022/08/11 15:18:33;;;;;;;2.50;0.80;;;;;;;50.21;8.87;101343.38;106984;1282;77322;-87
2022/08/11 15:38:10;;;;;;;2.80;1.10;;;;;;;49.51;8.72;101322.83;107274;1282;74208;-86
2022/08/11 15:46:30;;;;;;;1.70;0.80;;;;;;;49.31;8.69;101320.02;107106;1281;76784;-86
2022/08/11 15:49:01;;;;;;;2.10;1.00;;;;;;;49.19;8.54;101315.38;107324;1282;72402;-86
2022/08/11 15:51:44;;;;;;;3.50;0.90;;;;;;;48.89;8.23;101309.23;106666;1282;74665;-86
2022/08/11 15:54:16;;;;;;;2.30;0.80;;;;;;;48.73;8.79;101311.49;107095;1282;60389;-86
2022/08/11 15:56:45;;;;;;;2.30;0.90;;;;;;;48.94;8.79;101312.13;107493;1281;61227;-86
2022/08/11 16:05:01;;;;;;;5.60;0.90;;;;;;;48.60;8.47;101307.06;107325;1281;72818;-85
2022/08/11 16:07:34;;;;;;;1.90;0.70;;;;;;;48.23;8.53;101305.52;107018;1282;62122;-84
2022/08/11 16:10:14;;;;;;;1.70;1.00;;;;;;;48.03;8.78;101300.20;107154;1282;60750;-84
2022/08/11 16:18:39;;;;;;;2.00;0.90;;;;;;;47.79;9.23;101296.75;107152;1282;74099;-85
2022/08/11 16:21:16;;;;;;;2.80;0.90;;;;;;;47.89;9.09;101289.36;107278;1284;61930;-85
2022/08/11 16:24:05;;;;;;;2.80;0.90;;;;;;;47.64;9.28;101286.55;107116;1282;61593;-84
2022/08/11 16:26:35;;;;;;;2.90;0.80;;;;;;;47.49;9.37;101289.57;107300;1282;75758;-84
2022/08/11 16:29:24;;;;;;;2.30;0.90;;;;;;;47.20;9.41;101287.89;106780;1284;74408;-86
2022/08/11 16:40:21;;;;;;;3.50;1.30;;;;;;;45.99;10.24;101284.64;107542;1282;77234;-84
2022/08/11 16:48:29;;;;;;;2.50;0.80;;;;;;;46.17;10.08;101283.80;107213;1281;61201;-84
2022/08/11 16:51:03;;;;;;;2.40;0.80;;;;;;;46.09;10.24;101280.21;107238;1283;60657;-84
2022/08/11 16:53:30;;;;;;;2.70;0.90;;;;;;;46.04;10.14;101276.23;107175;1284;75783;-84
2022/08/11 16:56:42;;;;;;;2.60;1.00;;;;;;;45.99;10.22;101272.94;106921;1282;73464;-84
2022/08/11 16:59:15;;;;;;;1.40;0.90;;;;;;;46.12;10.36;101277.09;106777;1282;73037;-84
2022/08/11 17:01:56;;;;;;;3.00;1.00;;;;;;;46.10;10.50;101272.75;106582;1284;61394;-84
2022/08/11 17:13:25;;;;;;;2.90;1.00;;;;;;;45.81;10.42;101264.89;106950;1283;73492;-83
2022/08/11 17:16:10;;;;;;;1.70;0.90;;;;;;;45.50;10.33;101265.73;107178;1282;62566;-83